createdAt,value
2023-03-05T00:01:20.233Z,5.13
2023-03-05T00:03:47.204Z,5.45
2023-03-05T00:06:14.283Z,4.10
2023-03-05T00:08:41.249Z,3.50
2023-03-05T00:11:10.715Z,3.90
2023-03-05T00:13:38.781Z,3.50
2023-03-05T00:16:12.033Z,3.13
2023-03-05T00:18:39.525Z,3.13
2023-03-05T00:21:27.845Z,3.50
2023-03-05T00:23:55.767Z,4.28
2023-03-05T00:26:25.419Z,4.57
2023-03-05T00:31:25.626Z,3.80
2023-03-05T00:33:54.362Z,3.25
2023-03-05T00:36:21.489Z,3.30
2023-03-05T00:38:48.669Z,3.30
2023-03-05T00:41:15.518Z,3.22
2023-03-05T00:43:42.938Z,2.80
2023-03-05T00:46:10.077Z,3.10
2023-03-05T00:48:36.909Z,2.83
2023-03-05T00:51:04.030Z,3.85
2023-03-05T00:53:31.269Z,3.58
2023-03-05T00:55:59.400Z,3.20
2023-03-05T00:58:26.365Z,3.13
2023-03-05T01:00:53.329Z,2.70
2023-03-05T01:03:20.151Z,3.85
2023-03-05T01:05:46.941Z,3.10
2023-03-05T01:08:13.838Z,3.60
2023-03-05T01:10:40.692Z,3.13
2023-03-05T01:13:07.755Z,3.33
2023-03-05T01:15:34.592Z,2.95
2023-03-05T01:18:01.456Z,2.80
2023-03-05T01:20:28.293Z,2.75
2023-03-05T01:22:55.148Z,2.50
2023-03-05T01:25:22.049Z,2.55
2023-03-05T01:27:48.912Z,2.75
2023-03-05T01:30:16.220Z,2.75
2023-03-05T01:32:43.432Z,2.42
2023-03-05T01:35:17.296Z,2.17
2023-03-05T01:37:44.713Z,2.20
2023-03-05T01:40:14.893Z,2.50
2023-03-05T01:42:48.292Z,2.50
2023-03-05T01:45:18.428Z,3.38
2023-03-05T01:47:45.919Z,3.55
2023-03-05T01:50:17.367Z,2.85
2023-03-05T01:52:50.353Z,2.72
2023-03-05T01:55:20.799Z,3.30
2023-03-05T01:57:54.010Z,2.70
2023-03-05T02:00:27.489Z,3.05
2023-03-05T02:02:55.083Z,3.10
2023-03-05T02:05:27.120Z,3.40
2023-03-05T02:08:02.703Z,3.67
2023-03-05T02:10:32.758Z,3.78
2023-03-05T02:13:02.623Z,3.15
2023-03-05T02:15:30.520Z,2.42
2023-03-05T02:17:57.345Z,3.50
2023-03-05T02:20:27.338Z,3.10
2023-03-05T02:22:54.512Z,3.58
2023-03-05T02:25:27.555Z,3.78
2023-03-05T02:27:54.307Z,5.03
2023-03-05T02:30:21.576Z,3.53
2023-03-05T02:32:48.499Z,3.53
2023-03-05T02:35:15.415Z,3.90
2023-03-05T02:37:43.118Z,3.42
2023-03-05T02:40:12.183Z,4.40
2023-03-05T02:42:39.176Z,4.50
2023-03-05T02:45:06.807Z,3.30
2023-03-05T02:47:33.874Z,3.67
2023-03-05T02:50:00.940Z,4.30
2023-03-05T02:52:29.746Z,3.92
2023-03-05T02:54:56.675Z,4.15
2023-03-05T02:57:23.514Z,4.10
2023-03-05T02:59:50.610Z,3.85
2023-03-05T03:02:18.020Z,3.78
2023-03-05T03:04:45.688Z,3.72
2023-03-05T03:07:13.796Z,4.10
2023-03-05T03:09:42.782Z,3.80
2023-03-05T03:12:10.753Z,3.80
2023-03-05T03:14:39.806Z,3.45
2023-03-05T03:17:07.815Z,3.75
2023-03-05T03:19:36.598Z,3.75
2023-03-05T03:22:03.816Z,3.10
2023-03-05T03:24:31.710Z,3.72
2023-03-05T03:26:58.851Z,2.95
2023-03-05T03:29:25.705Z,3.78
2023-03-05T03:31:52.704Z,3.70
2023-03-05T03:34:19.889Z,3.50
2023-03-05T03:36:48.996Z,4.00
2023-03-05T03:39:16.872Z,3.00
2023-03-05T03:41:45.829Z,3.60
2023-03-05T03:44:13.504Z,3.90
2023-03-05T03:46:41.290Z,3.80
2023-03-05T03:49:08.582Z,4.45
2023-03-05T03:51:35.408Z,3.80
2023-03-05T03:54:02.403Z,4.07
2023-03-05T03:56:29.254Z,3.90
2023-03-05T03:58:56.092Z,4.13
2023-03-05T04:01:23.126Z,3.63
2023-03-05T04:03:49.975Z,3.47
2023-03-05T04:06:16.826Z,4.32
2023-03-05T04:08:43.661Z,3.75
2023-03-05T04:11:10.471Z,4.75
2023-03-05T04:13:37.345Z,3.45
2023-03-05T04:16:04.607Z,3.05
2023-03-05T04:18:32.575Z,3.20
2023-03-05T04:20:59.546Z,3.70
2023-03-05T04:23:26.438Z,3.78
2023-03-05T04:25:53.370Z,3.17
2023-03-05T04:28:20.222Z,3.25
2023-03-05T04:30:47.132Z,4.72
2023-03-05T04:33:14.126Z,4.43
2023-03-05T04:35:41.039Z,5.25
2023-03-05T04:38:08.380Z,4.05
2023-03-05T04:40:36.074Z,3.55
2023-03-05T04:43:03.743Z,3.40
2023-03-05T04:45:31.296Z,3.90
2023-03-05T04:47:58.561Z,3.28
2023-03-05T04:50:25.483Z,3.10
2023-03-05T04:52:52.314Z,3.38
2023-03-05T04:55:19.299Z,4.28
2023-03-05T04:57:46.122Z,3.90
2023-03-05T05:00:15.186Z,3.60
2023-03-05T05:02:46.407Z,2.90
2023-03-05T05:05:16.662Z,2.90
2023-03-05T05:07:43.663Z,2.60
2023-03-05T05:10:11.833Z,2.80
2023-03-05T05:12:38.739Z,2.50
2023-03-05T05:15:07.699Z,2.40
2023-03-05T05:17:34.777Z,2.63
2023-03-05T05:20:02.175Z,2.70
2023-03-05T05:22:29.647Z,2.42
2023-03-05T05:24:56.628Z,2.72
2023-03-05T05:27:23.479Z,3.08
2023-03-05T05:29:50.425Z,3.70
2023-03-05T05:32:18.446Z,3.10
2023-03-05T05:34:45.371Z,4.43
2023-03-05T05:37:12.446Z,3.67
2023-03-05T05:39:39.517Z,2.30
2023-03-05T05:42:06.617Z,2.05
2023-03-05T05:44:34.920Z,2.00
2023-03-05T05:47:02.034Z,2.20
2023-03-05T05:49:28.849Z,2.63
2023-03-05T05:51:55.721Z,3.65
2023-03-05T05:54:22.590Z,2.40
2023-03-05T05:56:49.441Z,2.70
2023-03-05T05:59:16.236Z,2.17
2023-03-05T06:01:43.394Z,2.22
2023-03-05T06:04:10.253Z,2.20
2023-03-05T06:06:37.217Z,2.00
2023-03-05T06:09:04.310Z,2.20
2023-03-05T06:11:31.253Z,2.20
2023-03-05T06:13:58.268Z,2.40
2023-03-05T06:16:25.812Z,2.40
2023-03-05T06:18:53.612Z,2.45
2023-03-05T06:21:21.976Z,2.53
2023-03-05T06:23:49.645Z,2.20
2023-03-05T06:26:18.968Z,3.20
2023-03-05T06:28:46.078Z,3.30
2023-03-05T06:31:19.458Z,2.72
2023-03-05T06:33:46.270Z,3.33
2023-03-05T06:36:15.378Z,2.92
2023-03-05T06:38:43.358Z,2.72
2023-03-05T06:41:16.977Z,3.70
2023-03-05T06:43:46.142Z,3.60
2023-03-05T06:46:16.155Z,3.45
2023-03-05T06:48:43.951Z,3.05
2023-03-05T06:51:15.296Z,2.92
2023-03-05T06:53:42.746Z,3.22
2023-03-05T06:56:09.947Z,2.65
2023-03-05T06:58:36.811Z,2.80
2023-03-05T07:01:07.219Z,2.45
2023-03-05T07:03:35.618Z,2.92
2023-03-05T07:06:07.589Z,2.40
2023-03-05T07:08:34.760Z,2.53
2023-03-05T07:11:01.882Z,2.38
2023-03-05T07:13:29.150Z,2.10
2023-03-05T07:15:56.066Z,2.53
2023-03-05T07:18:22.984Z,3.60
2023-03-05T07:20:49.833Z,5.00
2023-03-05T07:23:16.731Z,5.30
2023-03-05T07:25:43.568Z,4.60
2023-03-05T07:28:10.666Z,5.30
2023-03-05T07:30:37.570Z,3.75
2023-03-05T07:33:04.510Z,3.33
2023-03-05T07:35:31.339Z,4.32
2023-03-05T07:37:58.266Z,4.07
2023-03-05T07:40:25.192Z,4.15
2023-03-05T07:42:52.354Z,4.57
2023-03-05T07:45:19.229Z,2.97
2023-03-05T07:47:46.107Z,3.03
2023-03-05T07:50:13.005Z,2.58
2023-03-05T07:52:39.929Z,2.78
2023-03-05T07:55:07.136Z,3.85
2023-03-05T07:57:35.510Z,3.60
2023-03-05T08:00:02.401Z,2.70
2023-03-05T08:02:29.780Z,2.30
2023-03-05T08:04:56.723Z,3.00
2023-03-05T08:07:23.766Z,3.28
2023-03-05T08:09:50.658Z,3.42
2023-03-05T08:12:17.581Z,2.83
2023-03-05T08:14:44.423Z,3.13
2023-03-05T08:17:11.278Z,3.08
2023-03-05T08:19:38.114Z,2.80
2023-03-05T08:22:05.036Z,2.42
2023-03-05T08:24:31.988Z,2.40
2023-03-05T08:26:58.920Z,2.08
2023-03-05T08:29:26.522Z,2.50
2023-03-05T08:31:53.771Z,2.50
2023-03-05T08:34:21.993Z,2.72
2023-03-05T08:36:49.372Z,2.75
2023-03-05T08:39:17.104Z,2.20
2023-03-05T08:41:44.083Z,2.28
2023-03-05T08:44:11.160Z,2.40
2023-03-05T08:46:39.950Z,2.20
2023-03-05T08:49:07.839Z,2.47
2023-03-05T08:51:35.940Z,2.20
2023-03-05T08:54:06.828Z,2.63
2023-03-05T08:56:35.319Z,2.40
2023-03-05T08:59:03.689Z,2.30
2023-03-05T09:01:32.045Z,2.90
2023-03-05T09:04:00.093Z,2.08
2023-03-05T09:06:27.938Z,2.30
2023-03-05T09:08:55.216Z,2.83
2023-03-05T09:11:22.437Z,2.63
2023-03-05T09:13:49.315Z,2.33
2023-03-05T09:16:17.852Z,2.05
2023-03-05T09:18:45.047Z,2.72
2023-03-05T09:21:15.551Z,2.10
2023-03-05T09:23:42.551Z,2.70
2023-03-05T09:26:12.210Z,2.30
2023-03-05T09:28:40.194Z,2.35
2023-03-05T09:31:08.156Z,2.30
2023-03-05T09:33:35.890Z,1.90
2023-03-05T09:36:03.774Z,1.98
2023-03-05T09:38:30.833Z,2.35
2023-03-05T09:41:36.968Z,3.25
2023-03-05T09:44:27.635Z,2.42
2023-03-05T09:47:00.335Z,2.30
2023-03-05T09:50:01.709Z,2.30
2023-03-05T09:52:41.209Z,2.75
2023-03-05T09:55:23.808Z,2.03
2023-03-05T09:57:55.321Z,2.50
2023-03-05T10:00:34.493Z,2.45
2023-03-05T10:03:06.515Z,2.25
2023-03-05T10:06:14.851Z,2.42
2023-03-05T10:08:57.812Z,1.92
2023-03-05T10:11:52.060Z,3.03
2023-03-05T10:14:34.257Z,2.03
2023-03-05T10:17:20.600Z,1.90
2023-03-05T10:19:56.386Z,1.75
2023-03-05T10:22:28.271Z,2.10
2023-03-05T10:25:08.161Z,1.92
2023-03-05T10:28:07.889Z,1.77
2023-03-05T10:30:54.721Z,2.25
2023-03-05T10:33:29.739Z,1.70
2023-03-05T10:36:46.754Z,1.75
2023-03-05T10:39:46.110Z,1.80
2023-03-05T10:42:15.978Z,2.08
2023-03-05T10:44:56.866Z,2.22
2023-03-05T10:47:49.669Z,2.55
2023-03-05T10:50:28.882Z,1.90
2023-03-05T10:53:15.779Z,2.13
2023-03-05T10:55:42.710Z,2.10
2023-03-05T10:58:15.581Z,2.15
2023-03-05T11:00:58.446Z,1.70
2023-03-05T11:03:25.647Z,1.77
2023-03-05T11:06:00.840Z,2.10
2023-03-05T11:08:35.721Z,2.17
2023-03-05T11:11:04.462Z,1.95
2023-03-05T11:13:32.799Z,2.10
2023-03-05T11:16:01.782Z,2.00
2023-03-05T11:18:34.303Z,1.80
2023-03-05T11:21:38.220Z,1.77
2023-03-05T11:24:06.489Z,1.52
2023-03-05T11:26:34.544Z,2.15
2023-03-05T11:29:04.856Z,1.90
2023-03-05T11:31:33.565Z,1.45
2023-03-05T11:34:23.650Z,1.70
2023-03-05T11:36:53.607Z,2.00
2023-03-05T11:39:23.647Z,1.85
2023-03-05T11:41:52.250Z,2.08
2023-03-05T11:44:30.092Z,1.92
2023-03-05T11:47:16.937Z,1.88
2023-03-05T11:49:47.553Z,1.70
2023-03-05T11:52:31.023Z,1.98
2023-03-05T11:55:14.780Z,1.90
2023-03-05T11:58:09.281Z,1.70
2023-03-05T12:00:41.156Z,1.90
2023-03-05T12:03:14.962Z,2.03
2023-03-05T12:05:54.188Z,1.63
2023-03-05T12:08:30.112Z,1.77
2023-03-05T12:11:01.204Z,1.70
2023-03-05T12:13:41.688Z,2.45
2023-03-05T12:16:28.308Z,2.13
2023-03-05T12:19:21.856Z,2.08
2023-03-05T12:21:52.261Z,1.73
2023-03-05T12:24:27.763Z,1.70
2023-03-05T12:27:03.910Z,2.13
2023-03-05T12:29:47.717Z,1.85
2023-03-05T12:32:28.927Z,2.20
2023-03-05T12:34:55.707Z,1.70
2023-03-05T12:37:23.292Z,2.00
2023-03-05T12:40:04.411Z,2.13
2023-03-05T12:42:31.454Z,2.08
2023-03-05T12:45:14.529Z,1.85
2023-03-05T12:47:41.968Z,1.50
2023-03-05T12:50:26.970Z,1.73
2023-03-05T12:53:18.222Z,2.10
2023-03-05T12:55:47.819Z,1.60
2023-03-05T13:01:14.318Z,1.88
2023-03-05T13:03:48.257Z,1.80
2023-03-05T13:06:31.039Z,1.90
2023-03-05T13:09:23.280Z,2.00
2023-03-05T13:11:53.347Z,1.70
2023-03-05T13:14:35.884Z,1.67
2023-03-05T13:17:23.689Z,1.90
2023-03-05T13:19:50.614Z,1.85
2023-03-05T13:22:17.483Z,1.80
2023-03-05T13:24:44.375Z,1.90
2023-03-05T13:27:29.770Z,1.42
2023-03-05T13:29:56.645Z,1.65
2023-03-05T13:32:29.965Z,1.80
2023-03-05T13:34:59.616Z,1.70
2023-03-05T13:37:29.021Z,1.65
2023-03-05T13:42:32.714Z,1.73
2023-03-05T13:45:02.321Z,1.70
2023-03-05T13:47:32.623Z,1.50
2023-03-05T13:50:02.477Z,1.42
2023-03-05T13:52:47.499Z,1.60
2023-03-05T13:55:17.110Z,1.70
2023-03-05T13:57:47.400Z,1.70
2023-03-05T14:00:26.476Z,1.50
2023-03-05T14:03:00.226Z,1.80
2023-03-05T14:05:28.572Z,1.33
2023-03-05T14:07:56.690Z,1.63
2023-03-05T14:10:36.056Z,1.50
2023-03-05T14:13:24.541Z,1.60
2023-03-05T14:16:04.817Z,1.63
2023-03-05T14:18:31.841Z,1.70
2023-03-05T14:21:07.809Z,1.50
2023-03-05T14:24:11.916Z,2.03
2023-03-05T14:26:47.554Z,2.08
2023-03-05T14:29:17.643Z,1.90
2023-03-05T14:31:53.515Z,1.80
2023-03-05T14:34:35.617Z,1.85
2023-03-05T14:37:05.454Z,1.60
2023-03-05T14:39:46.192Z,1.70
2023-03-05T14:42:27.561Z,1.80
2023-03-05T14:44:56.348Z,2.10
2023-03-05T14:47:24.381Z,1.90
2023-03-05T14:49:51.559Z,2.00
2023-03-05T14:52:21.955Z,1.80
2023-03-05T14:54:49.146Z,2.08
2023-03-05T14:57:26.517Z,2.33
2023-03-05T14:59:54.299Z,2.20
2023-03-05T15:02:24.230Z,1.98
2023-03-05T15:04:51.343Z,1.67
2023-03-05T15:07:31.088Z,1.70
2023-03-05T15:09:59.889Z,2.05
2023-03-05T15:12:27.189Z,1.92
2023-03-05T15:14:55.571Z,2.20
2023-03-05T15:17:26.684Z,1.90
2023-03-05T15:19:53.949Z,2.42
2023-03-05T15:22:21.372Z,1.83
2023-03-05T15:24:49.020Z,2.17
2023-03-05T15:27:15.881Z,1.75
2023-03-05T15:29:42.804Z,1.73
2023-03-05T15:32:09.726Z,2.10
2023-03-05T15:34:37.033Z,2.15
2023-03-05T15:37:05.403Z,1.95
2023-03-05T15:39:32.454Z,1.60
2023-03-05T15:41:59.440Z,1.90
2023-03-05T15:44:26.461Z,2.08
2023-03-05T15:46:53.779Z,2.08
2023-03-05T15:49:22.631Z,2.15
2023-03-05T15:51:49.481Z,1.88
2023-03-05T15:54:16.584Z,2.00
2023-03-05T15:56:43.463Z,2.22
2023-03-05T15:59:10.367Z,2.05
2023-03-05T16:01:38.228Z,2.10
2023-03-05T16:04:05.617Z,2.17
2023-03-05T16:06:34.013Z,1.95
2023-03-05T16:09:05.312Z,2.20
2023-03-05T16:11:35.850Z,2.40
2023-03-05T16:14:06.514Z,2.40
2023-03-05T16:16:35.509Z,2.10
2023-03-05T16:19:05.838Z,2.47
2023-03-05T16:21:32.884Z,1.90
2023-03-05T16:23:59.838Z,2.40
2023-03-05T16:26:27.121Z,2.22
2023-03-05T16:28:54.516Z,2.67
2023-03-05T16:31:21.522Z,2.15
2023-03-05T16:33:48.477Z,2.03
2023-03-05T16:36:24.734Z,2.10
2023-03-05T16:38:53.330Z,2.42
2023-03-05T16:41:23.183Z,2.50
2023-03-05T16:43:53.417Z,2.35
2023-03-05T16:46:20.720Z,2.63
2023-03-05T16:48:47.784Z,2.38
2023-03-05T16:51:15.085Z,2.33
2023-03-05T16:53:42.149Z,2.35
2023-03-05T16:56:09.896Z,2.28
2023-03-05T16:58:39.076Z,2.30
2023-03-05T17:01:11.785Z,2.53
2023-03-05T17:03:41.373Z,2.47
2023-03-05T17:08:39.308Z,2.30
2023-03-05T17:11:06.282Z,2.40
2023-03-05T17:13:33.166Z,2.58
2023-03-05T17:16:00.173Z,2.65
2023-03-05T17:18:27.312Z,2.60
2023-03-05T17:20:54.217Z,2.40
2023-03-05T17:23:21.370Z,2.75
2023-03-05T17:25:48.425Z,2.78
2023-03-05T17:28:15.496Z,2.38
2023-03-05T17:30:42.473Z,2.75
2023-03-05T17:33:10.889Z,2.42
2023-03-05T17:35:38.367Z,2.30
2023-03-05T17:38:07.658Z,2.13
2023-03-05T17:40:34.871Z,2.05
2023-03-05T17:43:02.486Z,2.30
2023-03-05T17:45:29.323Z,2.20
2023-03-05T17:47:57.752Z,3.03
2023-03-05T17:50:25.629Z,2.50
2023-03-05T17:52:52.800Z,2.72
2023-03-05T17:55:20.207Z,2.47
2023-03-05T17:57:47.893Z,2.72
2023-03-05T18:00:23.670Z,2.53
2023-03-05T18:02:51.161Z,2.10
2023-03-05T18:05:20.185Z,2.42
2023-03-05T18:07:47.134Z,2.22
2023-03-05T18:10:15.248Z,2.05
2023-03-05T18:12:42.401Z,2.33
2023-03-05T18:15:12.916Z,2.00
2023-03-05T18:17:39.875Z,2.42
2023-03-05T18:20:08.530Z,2.42
2023-03-05T18:22:35.932Z,2.33
2023-03-05T18:25:02.811Z,2.45
2023-03-05T18:27:31.080Z,2.92
2023-03-05T18:29:58.177Z,2.75
2023-03-05T18:32:25.138Z,3.05
2023-03-05T18:34:52.124Z,3.50
2023-03-05T18:37:18.967Z,2.72
2023-03-05T18:39:45.878Z,3.28
2023-03-05T18:42:13.575Z,3.45
2023-03-05T18:44:41.467Z,2.40
2023-03-05T18:47:08.405Z,2.50
2023-03-05T18:49:35.418Z,3.38
2023-03-05T18:52:03.568Z,2.72
2023-03-05T18:54:32.511Z,3.30
2023-03-05T18:56:59.448Z,2.85
2023-03-05T18:59:26.400Z,3.20
2023-03-05T19:01:53.291Z,2.95
2023-03-05T19:04:20.226Z,2.92
2023-03-05T19:06:47.076Z,2.47
2023-03-05T19:09:20.908Z,2.58
2023-03-05T19:11:48.281Z,2.70
2023-03-05T19:14:15.122Z,2.95
2023-03-05T19:16:44.137Z,3.05
2023-03-05T19:19:24.472Z,3.15
2023-03-05T19:21:59.687Z,3.78
2023-03-05T19:24:28.935Z,3.95
2023-03-05T19:26:58.184Z,3.25
2023-03-05T19:29:26.313Z,3.42
2023-03-05T19:31:54.415Z,3.47
2023-03-05T19:34:21.660Z,3.60
2023-03-05T19:36:48.565Z,3.75
2023-03-05T19:39:15.611Z,4.00
2023-03-05T19:41:42.635Z,4.13
2023-03-05T19:44:09.503Z,3.85
2023-03-05T19:46:36.516Z,4.45
2023-03-05T19:49:04.188Z,3.38
2023-03-05T19:51:31.139Z,4.10
2023-03-05T19:53:57.990Z,2.97
2023-03-05T19:56:24.884Z,4.88
2023-03-05T19:58:52.202Z,5.03
2023-03-05T20:01:21.895Z,4.55
2023-03-05T20:03:54.395Z,3.65
2023-03-05T20:06:21.780Z,4.28
2023-03-05T20:08:49.421Z,4.03
2023-03-05T20:11:18.049Z,4.22
2023-03-05T20:13:45.314Z,4.37
2023-03-05T20:16:16.097Z,4.38
2023-03-05T20:18:43.936Z,5.03
2023-03-05T20:21:11.392Z,4.55
2023-03-05T20:23:38.443Z,6.78
2023-03-05T20:26:06.731Z,6.82
2023-03-05T20:28:33.887Z,5.45
2023-03-05T20:31:01.550Z,5.18
2023-03-05T20:33:29.509Z,4.80
2023-03-05T20:35:56.609Z,4.80
2023-03-05T20:38:30.300Z,3.90
2023-03-05T20:41:06.633Z,4.28
2023-03-05T20:43:36.226Z,3.97
2023-03-05T20:48:33.856Z,3.90
2023-03-05T20:51:15.812Z,3.67
2023-03-05T20:53:42.913Z,4.57
2023-03-05T20:56:09.958Z,4.50
2023-03-05T20:58:37.737Z,4.35
2023-03-05T21:01:04.785Z,4.13
2023-03-05T21:03:31.929Z,3.50
2023-03-05T21:05:59.063Z,3.60
2023-03-05T21:08:25.950Z,3.97
2023-03-05T21:10:52.866Z,3.83
2023-03-05T21:13:22.087Z,3.70
2023-03-05T21:15:49.038Z,4.22
2023-03-05T21:18:15.919Z,3.95
2023-03-05T21:20:43.077Z,3.67
2023-03-05T21:23:10.168Z,4.25
2023-03-05T21:25:37.076Z,4.00
2023-03-05T21:28:12.639Z,3.80
2023-03-05T21:30:44.628Z,4.13
2023-03-05T21:33:14.866Z,3.85
2023-03-05T21:35:41.888Z,3.70
2023-03-05T21:38:10.165Z,3.90
2023-03-05T21:40:40.012Z,4.07
2023-03-05T21:43:06.922Z,3.58
2023-03-05T21:45:33.931Z,3.55
2023-03-05T21:48:00.864Z,4.82
2023-03-05T21:50:27.767Z,4.28
2023-03-05T21:52:55.116Z,4.20
2023-03-05T21:55:30.395Z,3.70
2023-03-05T21:57:57.249Z,4.15
2023-03-05T22:00:24.192Z,3.88
2023-03-05T22:02:51.106Z,4.22
2023-03-05T22:05:18.090Z,4.60
2023-03-05T22:07:45.142Z,3.75
2023-03-05T22:10:17.484Z,3.88
2023-03-05T22:13:12.129Z,4.10
2023-03-05T22:15:42.982Z,4.15
2023-03-05T22:18:10.210Z,3.80
2023-03-05T22:20:37.624Z,4.38
2023-03-05T22:23:05.023Z,4.10
2023-03-05T22:25:31.902Z,3.85
2023-03-05T22:27:58.729Z,3.90
2023-03-05T22:30:26.010Z,4.75
2023-03-05T22:32:53.797Z,3.90
2023-03-05T22:35:20.883Z,4.90
2023-03-05T22:37:48.032Z,3.83
2023-03-05T22:40:17.775Z,4.18
2023-03-05T22:42:45.571Z,4.03
2023-03-05T22:45:14.281Z,4.13
2023-03-05T22:47:41.180Z,3.53
2023-03-05T22:50:08.897Z,3.45
2023-03-05T22:52:35.741Z,3.90
2023-03-05T22:55:04.528Z,3.70
2023-03-05T22:57:33.229Z,3.83
2023-03-05T23:00:00.130Z,4.10
2023-03-05T23:02:26.949Z,3.55
2023-03-05T23:04:56.273Z,4.30
2023-03-05T23:07:29.285Z,3.42
2023-03-05T23:10:00.552Z,4.00
2023-03-05T23:12:30.853Z,3.90
2023-03-05T23:15:02.390Z,3.72
2023-03-05T23:17:29.493Z,3.83
2023-03-05T23:19:56.273Z,4.07
2023-03-05T23:22:23.163Z,4.20
2023-03-05T23:24:50.164Z,4.88
2023-03-05T23:27:18.665Z,3.58
2023-03-05T23:30:08.973Z,4.88
2023-03-05T23:32:36.074Z,4.53
2023-03-05T23:35:03.255Z,4.80
2023-03-05T23:37:30.117Z,4.30
2023-03-05T23:39:56.927Z,4.55
2023-03-05T23:42:23.748Z,4.40
2023-03-05T23:44:50.556Z,4.50
2023-03-05T23:47:17.415Z,5.15
2023-03-05T23:49:44.260Z,4.38
2023-03-05T23:52:11.514Z,4.90
2023-03-05T23:54:38.390Z,3.97
2023-03-05T23:57:05.288Z,3.92
2023-03-05T23:59:32.284Z,3.60
